VYMD/MDL METAR and TAF weather

Enter ICAO airport designator
Station Type Date Time Source
VYMD METAR 2019/08/24 18:30 UTC NOAA

VYMD 241830Z 14002KT 6000 BKN015 FEW018CB BKN110 27/26 Q1006


Station Type Date Time Source
VYMD Decoded METAR 2019/08/24 18:30 UTC NOAA

Station name not available
Aug 24, 2019 - 02:30 PM EDT / 2019.08.24 1830 UTC
Wind: from the SE (140 degrees) at 2 MPH (2 KT):0
Visibility: 3 mile(s):0
Sky conditions: mostly cloudy
Weather: Cumulonimbus clouds observed
Temperature: 80 F (27 C)
Dew Point: 78 F (26 C)
Relative Humidity: 94%
Pressure (altimeter): 29.71 in. Hg (1006 hPa)
ob: VYMD 241830Z 14002KT 6000 BKN015 FEW018CB BKN110 27/26 Q1006
cycle: 18

Station Type Date Time Source
VYMD TAF 2019/08/24 18:00 UTC NOAA

TAF VYMD 241700Z 2418/2518 14003KT 7000 BKN018 FEW020CB BKN100
TEMPO 2418/2424 18007KT 5000 -TSRA BKN015 FEW018CB OVC100

Example: see airport list